createdAt,value
2022-09-14T00:01:26.511Z,69.84
2022-09-14T00:04:10.940Z,69.89
2022-09-14T00:06:42.493Z,69.71
2022-09-14T00:09:18.697Z,69.73
2022-09-14T00:11:50.621Z,69.82
2022-09-14T00:14:22.583Z,69.83
2022-09-14T00:16:53.636Z,69.77
2022-09-14T00:19:27.888Z,69.72
2022-09-14T00:22:00.505Z,69.79
2022-09-14T00:24:32.647Z,69.67
2022-09-14T00:27:03.823Z,69.83
2022-09-14T00:29:35.064Z,69.60
2022-09-14T00:32:07.089Z,69.60
2022-09-14T00:34:38.103Z,69.57
2022-09-14T00:37:12.269Z,69.75
2022-09-14T00:39:43.933Z,69.84
2022-09-14T00:42:19.646Z,69.82
2022-09-14T00:45:08.439Z,69.66
2022-09-14T00:47:37.936Z,69.72
2022-09-14T00:50:13.151Z,69.84
2022-09-14T00:52:47.304Z,69.92
2022-09-14T00:55:24.911Z,69.96
2022-09-14T00:57:56.742Z,70.03
2022-09-14T01:00:29.867Z,69.90
2022-09-14T01:03:02.045Z,70.12
2022-09-14T01:05:46.507Z,70.41
2022-09-14T01:08:33.416Z,70.48
2022-09-14T01:11:26.664Z,70.58
2022-09-14T01:14:11.544Z,70.70
2022-09-14T01:16:49.122Z,70.69
2022-09-14T01:19:29.688Z,70.82
2022-09-14T01:22:11.096Z,70.79
2022-09-14T01:24:47.843Z,70.91
2022-09-14T01:27:32.521Z,71.03
2022-09-14T01:30:10.774Z,71.05
2022-09-14T01:32:54.238Z,71.07
2022-09-14T01:35:31.339Z,71.10
2022-09-14T01:38:06.988Z,71.25
2022-09-14T01:40:41.498Z,71.16
2022-09-14T01:43:17.521Z,71.08
2022-09-14T01:45:51.462Z,70.93
2022-09-14T01:48:26.246Z,71.02
2022-09-14T01:51:01.423Z,70.92
2022-09-14T01:53:34.802Z,71.11
2022-09-14T01:56:11.041Z,71.23
2022-09-14T01:58:46.632Z,71.30
2022-09-14T02:01:24.881Z,71.52
2022-09-14T02:04:00.622Z,71.65
2022-09-14T02:06:36.608Z,71.78
2022-09-14T02:09:11.333Z,71.81
2022-09-14T02:11:42.784Z,71.87
2022-09-14T02:14:13.845Z,71.97
2022-09-14T02:16:46.517Z,72.19
2022-09-14T02:19:23.901Z,72.18
2022-09-14T02:21:57.488Z,72.33
2022-09-14T02:24:30.195Z,72.38
2022-09-14T02:27:02.785Z,72.49
2022-09-14T02:29:34.368Z,72.66
2022-09-14T02:32:16.539Z,72.61
2022-09-14T02:34:59.366Z,72.60
2022-09-14T02:37:38.893Z,72.69
2022-09-14T02:40:36.841Z,72.64
2022-09-14T02:43:29.649Z,72.79
2022-09-14T02:46:17.915Z,72.83
2022-09-14T02:48:56.675Z,72.90
2022-09-14T02:51:33.817Z,72.85
2022-09-14T02:54:13.108Z,72.94
2022-09-14T02:56:46.031Z,72.96
2022-09-14T02:59:37.230Z,73.02
2022-09-14T03:02:08.397Z,72.86
2022-09-14T03:04:40.022Z,72.91
2022-09-14T03:07:21.990Z,72.92
2022-09-14T03:09:53.163Z,72.97
2022-09-14T03:12:24.263Z,72.89
2022-09-14T03:14:57.556Z,72.82
2022-09-14T03:17:28.579Z,73.03
2022-09-14T03:19:59.836Z,72.96
2022-09-14T03:22:30.867Z,73.03
2022-09-14T03:25:02.018Z,72.93
2022-09-14T03:27:33.086Z,72.98
2022-09-14T03:30:07.485Z,73.03
2022-09-14T03:32:41.170Z,73.02
2022-09-14T03:35:33.345Z,73.02
2022-09-14T03:38:04.857Z,72.85
2022-09-14T03:40:36.049Z,72.93
2022-09-14T03:43:07.005Z,72.74
2022-09-14T03:45:39.737Z,72.72
2022-09-14T03:48:15.726Z,72.72
2022-09-14T03:50:46.715Z,72.77
2022-09-14T03:53:17.540Z,72.78
2022-09-14T03:55:48.521Z,72.80
2022-09-14T03:58:19.519Z,73.03
2022-09-14T04:00:50.783Z,73.01
2022-09-14T04:03:21.946Z,73.03
2022-09-14T04:05:58.853Z,73.06
2022-09-14T04:08:29.968Z,73.29
2022-09-14T04:11:00.893Z,73.30
2022-09-14T04:13:34.625Z,73.20
2022-09-14T04:16:07.618Z,73.32
2022-09-14T04:18:39.873Z,73.48
2022-09-14T04:21:15.147Z,73.32
2022-09-14T04:26:37.131Z,73.47
2022-09-14T04:29:09.215Z,73.45
2022-09-14T04:31:40.632Z,73.46
2022-09-14T04:34:16.284Z,73.54
2022-09-14T04:36:47.558Z,73.54
2022-09-14T04:39:46.761Z,73.62
2022-09-14T04:42:18.843Z,73.73
2022-09-14T04:44:52.456Z,73.82
2022-09-14T04:47:28.092Z,73.89
2022-09-14T04:49:59.427Z,73.88
2022-09-14T04:52:33.522Z,73.75
2022-09-14T04:55:05.091Z,73.38
2022-09-14T04:57:46.821Z,73.22
2022-09-14T05:00:38.833Z,73.13
2022-09-14T05:03:12.943Z,73.12
2022-09-14T05:06:06.524Z,73.18
2022-09-14T05:09:00.207Z,73.26
2022-09-14T05:11:34.079Z,73.35
2022-09-14T05:14:14.759Z,73.37
2022-09-14T05:16:46.932Z,73.36
2022-09-14T05:19:19.242Z,73.29
2022-09-14T05:21:50.472Z,73.00
2022-09-14T05:24:22.213Z,73.10
2022-09-14T05:27:00.103Z,72.90
2022-09-14T05:29:32.835Z,72.89
2022-09-14T05:32:04.428Z,72.79
2022-09-14T05:34:36.082Z,73.31
2022-09-14T05:37:07.531Z,73.38
2022-09-14T05:39:39.819Z,72.86
2022-09-14T05:42:14.447Z,72.78
2022-09-14T05:44:45.891Z,73.01
2022-09-14T05:47:17.137Z,72.56
2022-09-14T05:49:48.629Z,71.50
2022-09-14T05:52:21.913Z,70.60
2022-09-14T05:55:13.501Z,70.02
2022-09-14T05:57:51.933Z,69.72
2022-09-14T06:00:23.645Z,69.71
2022-09-14T06:02:55.903Z,69.85
2022-09-14T06:05:28.319Z,69.86
2022-09-14T06:07:59.606Z,69.88
2022-09-14T06:10:30.914Z,69.98
2022-09-14T06:13:03.691Z,70.16
2022-09-14T06:15:36.013Z,70.27
2022-09-14T06:18:07.395Z,70.36
2022-09-14T06:20:41.248Z,70.41
2022-09-14T06:23:12.568Z,70.46
2022-09-14T06:25:44.638Z,70.56
2022-09-14T06:28:15.927Z,70.72
2022-09-14T06:30:47.621Z,70.81
2022-09-14T06:33:22.062Z,70.80
2022-09-14T06:36:00.766Z,70.95
2022-09-14T06:38:32.449Z,70.91
2022-09-14T06:41:06.438Z,70.86
2022-09-14T06:43:52.130Z,71.16
2022-09-14T06:46:25.329Z,71.13
2022-09-14T06:48:59.473Z,71.23
2022-09-14T06:51:32.935Z,71.30
2022-09-14T06:54:04.211Z,71.33
2022-09-14T06:56:48.787Z,71.25
2022-09-14T06:59:20.403Z,71.26
2022-09-14T07:01:53.365Z,71.15
2022-09-14T07:04:25.362Z,71.40
2022-09-14T07:06:56.590Z,71.52
2022-09-14T07:09:28.028Z,71.61
2022-09-14T07:11:59.115Z,71.65
2022-09-14T07:14:32.442Z,71.98
2022-09-14T07:17:26.521Z,71.92
2022-09-14T07:19:57.860Z,72.35
2022-09-14T07:22:28.996Z,74.91
2022-09-14T07:25:00.062Z,76.46
2022-09-14T07:27:39.948Z,75.69
2022-09-14T07:30:12.680Z,73.47
2022-09-14T07:32:49.844Z,70.64
2022-09-14T07:35:20.866Z,68.69
2022-09-14T07:38:12.248Z,66.80
2022-09-14T07:40:46.106Z,66.47
2022-09-14T07:43:17.416Z,66.30
2022-09-14T07:45:48.608Z,66.15
2022-09-14T07:48:20.929Z,65.86
2022-09-14T07:51:02.391Z,64.43
2022-09-14T07:53:33.896Z,62.45
2022-09-14T07:56:08.808Z,61.70
2022-09-14T07:59:23.862Z,61.17
2022-09-14T08:01:54.972Z,59.73
2022-09-14T08:04:26.158Z,58.62
2022-09-14T08:06:58.047Z,57.16
2022-09-14T08:09:29.374Z,56.46
2022-09-14T08:12:00.749Z,56.40
2022-09-14T08:14:31.823Z,56.28
2022-09-14T08:17:03.016Z,55.84
2022-09-14T08:19:34.134Z,54.82
2022-09-14T08:22:05.921Z,53.64
2022-09-14T08:24:37.196Z,52.89
2022-09-14T08:27:09.230Z,52.86
2022-09-14T08:29:40.793Z,52.53
2022-09-14T08:32:14.146Z,51.45
2022-09-14T08:34:45.118Z,50.57
2022-09-14T08:37:16.142Z,50.39
2022-09-14T08:39:51.426Z,51.11
2022-09-14T08:42:25.778Z,50.80
2022-09-14T08:45:00.269Z,50.92
2022-09-14T08:47:34.839Z,51.07
2022-09-14T08:50:13.726Z,50.94
2022-09-14T08:52:48.214Z,50.68
2022-09-14T08:55:38.993Z,50.49
2022-09-14T08:58:21.443Z,51.01
2022-09-14T09:04:25.017Z,51.60
2022-09-14T09:07:05.740Z,50.51
2022-09-14T09:09:44.882Z,49.92
2022-09-14T09:12:19.359Z,49.11
2022-09-14T09:14:54.631Z,48.57
2022-09-14T09:17:32.188Z,48.50
2022-09-14T09:20:11.013Z,48.27
2022-09-14T09:22:48.933Z,48.44
2022-09-14T09:25:25.078Z,48.63
2022-09-14T09:27:57.735Z,49.26
2022-09-14T09:30:29.944Z,49.60
2022-09-14T09:33:01.453Z,49.85
2022-09-14T09:35:46.436Z,50.25
2022-09-14T09:38:26.145Z,50.72
2022-09-14T09:41:03.541Z,51.43
2022-09-14T09:43:48.963Z,51.44
2022-09-14T09:46:23.066Z,51.40
2022-09-14T09:48:54.445Z,51.50
2022-09-14T09:51:32.044Z,51.59
2022-09-14T09:54:08.902Z,51.47
2022-09-14T09:56:42.807Z,51.53
2022-09-14T09:59:31.886Z,51.89
2022-09-14T10:02:21.772Z,51.94
2022-09-14T10:05:05.979Z,51.59
2022-09-14T10:08:13.115Z,51.54
2022-09-14T10:10:45.968Z,51.74
2022-09-14T10:13:29.074Z,51.78
2022-09-14T10:16:14.859Z,51.71
2022-09-14T10:19:03.696Z,51.73
2022-09-14T10:21:37.880Z,51.67
2022-09-14T10:24:26.747Z,51.22
2022-09-14T10:27:00.597Z,51.20
2022-09-14T10:29:40.509Z,51.05
2022-09-14T10:32:25.577Z,51.18
2022-09-14T10:34:59.673Z,51.08
2022-09-14T10:37:40.321Z,50.80
2022-09-14T10:41:14.036Z,50.62
2022-09-14T10:48:20.413Z,50.42
2022-09-14T10:51:06.882Z,50.10
2022-09-14T10:53:47.408Z,50.37
2022-09-14T10:56:25.219Z,50.50
2022-09-14T10:59:27.236Z,50.59
2022-09-14T11:02:29.794Z,50.60
2022-09-14T11:05:16.389Z,50.54
2022-09-14T11:08:05.864Z,50.67
2022-09-14T11:10:44.350Z,50.69
2022-09-14T11:13:48.241Z,50.57
2022-09-14T11:17:05.502Z,50.73
2022-09-14T11:19:55.145Z,50.44
2022-09-14T11:22:38.210Z,50.77
2022-09-14T11:25:38.109Z,51.01
2022-09-14T11:28:16.501Z,51.24
2022-09-14T11:30:56.980Z,51.31
2022-09-14T11:33:32.826Z,51.35
2022-09-14T11:36:08.589Z,51.31
2022-09-14T11:38:47.808Z,51.11
2022-09-14T11:41:28.766Z,50.85
2022-09-14T11:44:21.227Z,50.68
2022-09-14T11:47:01.009Z,50.51
2022-09-14T11:49:45.369Z,50.35
2022-09-14T11:52:22.895Z,50.15
2022-09-14T11:55:19.415Z,49.93
2022-09-14T11:57:54.440Z,49.68
2022-09-14T12:01:01.919Z,49.43
2022-09-14T12:04:09.664Z,49.05
2022-09-14T12:06:50.119Z,48.91
2022-09-14T12:09:46.492Z,48.69
2022-09-14T12:12:35.797Z,48.77
2022-09-14T12:15:16.655Z,48.84
2022-09-14T12:17:48.421Z,49.05
2022-09-14T12:20:39.006Z,48.92
2022-09-14T12:23:21.068Z,48.79
2022-09-14T12:26:03.393Z,49.04
2022-09-14T12:28:49.482Z,48.78
2022-09-14T12:32:07.350Z,48.77
2022-09-14T12:34:39.116Z,48.73
2022-09-14T12:37:31.526Z,48.62
2022-09-14T12:40:33.867Z,48.73
2022-09-14T12:43:42.132Z,48.68
2022-09-14T12:46:39.868Z,48.43
2022-09-14T12:49:31.536Z,48.41
2022-09-14T12:52:15.565Z,48.46
2022-09-14T12:55:00.106Z,48.55
2022-09-14T12:57:42.592Z,48.55
2022-09-14T13:00:19.939Z,48.63
2022-09-14T13:03:09.128Z,48.65
2022-09-14T13:05:44.146Z,48.45
2022-09-14T13:08:22.270Z,48.36
2022-09-14T13:11:00.802Z,48.42
2022-09-14T13:13:35.136Z,48.65
2022-09-14T13:16:10.339Z,48.52
2022-09-14T13:18:41.694Z,48.58
2022-09-14T13:21:24.094Z,48.45
2022-09-14T13:23:56.021Z,48.69
2022-09-14T13:26:31.969Z,48.65
2022-09-14T13:29:08.709Z,48.62
2022-09-14T13:31:41.280Z,48.75
2022-09-14T13:34:28.335Z,48.57
2022-09-14T13:37:01.323Z,48.56
2022-09-14T13:39:35.825Z,48.43
2022-09-14T13:42:10.391Z,48.47
2022-09-14T13:45:11.551Z,48.14
2022-09-14T13:47:43.235Z,48.14
2022-09-14T13:50:17.424Z,48.35
2022-09-14T13:53:01.800Z,48.01
2022-09-14T13:55:47.526Z,47.92
2022-09-14T13:58:24.381Z,47.68
2022-09-14T14:01:00.303Z,48.03
2022-09-14T14:03:38.425Z,47.99
2022-09-14T14:06:24.291Z,48.22
2022-09-14T14:09:44.265Z,48.52
2022-09-14T14:12:25.748Z,48.40
2022-09-14T14:14:59.426Z,48.52
2022-09-14T14:17:41.236Z,48.46
2022-09-14T14:20:37.074Z,48.68
2022-09-14T14:23:32.253Z,48.59
2022-09-14T14:26:18.912Z,48.81
2022-09-14T14:28:51.073Z,49.01
2022-09-14T14:31:26.393Z,49.19
2022-09-14T14:33:58.997Z,49.17
2022-09-14T14:37:43.215Z,49.51
2022-09-14T14:40:21.916Z,49.59
2022-09-14T14:42:53.334Z,49.41
2022-09-14T14:45:26.572Z,49.52
2022-09-14T14:48:02.378Z,49.62
2022-09-14T14:50:38.551Z,49.61
2022-09-14T14:53:10.303Z,49.72
2022-09-14T14:56:02.267Z,49.78
2022-09-14T14:58:43.515Z,49.85
2022-09-14T15:01:20.189Z,49.94
2022-09-14T15:07:55.172Z,49.93
2022-09-14T15:10:29.041Z,50.07
2022-09-14T15:13:00.415Z,50.08
2022-09-14T15:15:31.332Z,50.20
2022-09-14T15:18:04.754Z,50.45
2022-09-14T15:20:38.251Z,50.47
2022-09-14T15:23:10.076Z,50.60
2022-09-14T15:25:41.102Z,50.76
2022-09-14T15:28:12.148Z,50.85
2022-09-14T15:30:43.311Z,51.06
2022-09-14T15:33:14.425Z,51.04
2022-09-14T15:35:45.769Z,51.08
2022-09-14T15:38:17.175Z,51.16
2022-09-14T15:40:49.213Z,51.37
2022-09-14T15:43:20.571Z,51.52
2022-09-14T15:45:52.856Z,51.54
2022-09-14T15:48:24.182Z,51.73
2022-09-14T15:51:00.790Z,51.96
2022-09-14T15:53:31.977Z,52.02
2022-09-14T15:56:03.450Z,52.15
2022-09-14T15:58:34.886Z,52.32
2022-09-14T16:01:11.211Z,52.45
2022-09-14T16:03:42.863Z,52.60
2022-09-14T16:06:15.093Z,52.74
2022-09-14T16:08:46.185Z,52.82
2022-09-14T16:11:17.094Z,52.99
2022-09-14T16:13:50.570Z,53.26
2022-09-14T16:16:22.901Z,53.54
2022-09-14T16:18:54.065Z,53.65
2022-09-14T16:21:28.634Z,53.87
2022-09-14T16:24:03.859Z,54.07
2022-09-14T16:26:37.283Z,54.18
2022-09-14T16:29:12.306Z,54.28
2022-09-14T16:31:43.129Z,54.38
2022-09-14T16:34:17.807Z,54.54
2022-09-14T16:36:49.810Z,54.58
2022-09-14T16:39:23.627Z,54.79
2022-09-14T16:41:55.872Z,54.95
2022-09-14T16:44:29.100Z,55.20
2022-09-14T16:47:00.711Z,55.40
2022-09-14T16:49:33.740Z,55.51
2022-09-14T16:52:05.567Z,55.69
2022-09-14T16:54:36.533Z,55.72
2022-09-14T16:57:08.696Z,55.84
2022-09-14T16:59:39.993Z,56.05
2022-09-14T17:02:13.081Z,56.23
2022-09-14T17:04:44.193Z,56.41
2022-09-14T17:07:15.267Z,56.48
2022-09-14T17:09:46.182Z,56.57
2022-09-14T17:12:17.307Z,56.81
2022-09-14T17:14:48.496Z,56.90
2022-09-14T17:17:19.564Z,57.13
2022-09-14T17:19:50.918Z,57.18
2022-09-14T17:22:21.840Z,57.36
2022-09-14T17:24:53.192Z,57.44
2022-09-14T17:27:24.297Z,57.67
2022-09-14T17:29:55.150Z,57.77
2022-09-14T17:32:28.544Z,57.93
2022-09-14T17:34:59.969Z,57.91
2022-09-14T17:37:31.133Z,58.10
2022-09-14T17:40:02.888Z,58.29
2022-09-14T17:42:42.645Z,58.52
2022-09-14T17:45:14.087Z,58.64
2022-09-14T17:47:46.762Z,58.83
2022-09-14T17:50:19.608Z,58.88
2022-09-14T17:52:50.758Z,59.14
2022-09-14T17:55:24.415Z,59.34
2022-09-14T17:57:55.731Z,59.39
2022-09-14T18:00:26.576Z,59.57
2022-09-14T18:02:57.791Z,59.72
2022-09-14T18:05:29.024Z,59.82
2022-09-14T18:08:00.293Z,59.88
2022-09-14T18:10:32.183Z,59.93
2022-09-14T18:13:04.307Z,60.16
2022-09-14T18:15:39.779Z,60.22
2022-09-14T18:18:13.588Z,60.22
2022-09-14T18:20:44.424Z,60.50
2022-09-14T18:23:15.321Z,60.56
2022-09-14T18:25:46.530Z,60.75
2022-09-14T18:28:19.400Z,60.87
2022-09-14T18:30:50.427Z,60.91
2022-09-14T18:33:21.493Z,60.97
2022-09-14T18:35:58.042Z,61.12
2022-09-14T18:38:30.173Z,61.28
2022-09-14T18:41:07.297Z,61.27
2022-09-14T18:43:38.885Z,61.35
2022-09-14T18:46:10.856Z,61.42
2022-09-14T18:48:43.951Z,61.51
2022-09-14T18:51:15.655Z,61.52
2022-09-14T18:53:46.604Z,61.60
2022-09-14T18:56:19.506Z,61.77
2022-09-14T18:58:50.400Z,61.81
2022-09-14T19:01:21.420Z,61.84
2022-09-14T19:03:53.949Z,61.95
2022-09-14T19:06:25.668Z,62.08
2022-09-14T19:09:04.724Z,61.97
2022-09-14T19:11:36.572Z,62.09
2022-09-14T19:14:14.605Z,62.20
2022-09-14T19:16:45.809Z,62.06
2022-09-14T19:19:18.001Z,62.19
2022-09-14T19:21:49.050Z,62.09
2022-09-14T19:24:20.850Z,62.21
2022-09-14T19:26:52.957Z,62.25
2022-09-14T19:29:25.755Z,62.39
2022-09-14T19:31:57.449Z,62.48
2022-09-14T19:34:30.451Z,62.58
2022-09-14T19:37:01.292Z,62.65
2022-09-14T19:39:32.402Z,62.77
2022-09-14T19:42:03.912Z,62.81
2022-09-14T19:44:35.048Z,62.85
2022-09-14T19:47:11.661Z,63.00
2022-09-14T19:49:43.102Z,62.98
2022-09-14T19:52:14.013Z,63.13
2022-09-14T19:54:44.987Z,63.15
2022-09-14T19:57:15.845Z,63.07
2022-09-14T19:59:46.719Z,63.25
2022-09-14T20:02:17.605Z,63.21
2022-09-14T20:04:48.692Z,63.16
2022-09-14T20:07:20.159Z,63.18
2022-09-14T20:09:51.241Z,63.06
2022-09-14T20:12:22.085Z,63.19
2022-09-14T20:14:52.912Z,63.11
2022-09-14T20:17:23.938Z,63.19
2022-09-14T20:19:55.035Z,63.29
2022-09-14T20:22:26.069Z,63.32
2022-09-14T20:24:57.265Z,63.43
2022-09-14T20:27:28.428Z,63.37
2022-09-14T20:29:59.189Z,63.38
2022-09-14T20:32:31.408Z,63.43
2022-09-14T20:35:02.314Z,63.47
2022-09-14T20:37:33.146Z,63.39
2022-09-14T20:40:04.710Z,63.45
2022-09-14T20:42:35.559Z,63.46
2022-09-14T20:45:07.567Z,63.46
2022-09-14T20:47:38.459Z,63.48
2022-09-14T20:50:11.167Z,63.46
2022-09-14T20:52:42.029Z,63.44
2022-09-14T20:55:13.810Z,63.48
2022-09-14T20:57:44.657Z,63.67
2022-09-14T21:00:17.584Z,63.75
2022-09-14T21:02:53.483Z,63.76
2022-09-14T21:05:24.335Z,63.82
2022-09-14T21:07:57.129Z,63.85
2022-09-14T21:10:29.523Z,63.82
2022-09-14T21:13:00.651Z,64.00
2022-09-14T21:15:32.576Z,64.06
2022-09-14T21:18:03.859Z,63.97
2022-09-14T21:20:38.389Z,64.04
2022-09-14T21:23:09.656Z,64.02
2022-09-14T21:25:40.592Z,64.07
2022-09-14T21:28:13.699Z,64.12
2022-09-14T21:30:44.587Z,64.01
2022-09-14T21:33:15.528Z,64.04
2022-09-14T21:35:46.445Z,64.08
2022-09-14T21:38:17.623Z,64.07
2022-09-14T21:40:48.437Z,64.18
2022-09-14T21:43:19.260Z,64.14
2022-09-14T21:45:50.624Z,64.24
2022-09-14T21:48:21.779Z,64.23
2022-09-14T21:51:01.561Z,64.23
2022-09-14T21:53:33.291Z,64.23
2022-09-14T21:56:05.355Z,64.18
2022-09-14T21:58:36.714Z,64.13
2022-09-14T22:01:08.288Z,64.23
2022-09-14T22:03:40.077Z,64.30
2022-09-14T22:06:16.344Z,64.39
2022-09-14T22:08:48.233Z,64.44
2022-09-14T22:11:23.241Z,64.51
2022-09-14T22:13:57.406Z,64.45
2022-09-14T22:16:29.981Z,64.46
2022-09-14T22:19:04.297Z,64.51
2022-09-14T22:21:38.275Z,64.51
2022-09-14T22:24:12.738Z,64.56
2022-09-14T22:26:43.743Z,64.69
2022-09-14T22:29:15.626Z,64.73
2022-09-14T22:31:47.740Z,64.66
2022-09-14T22:34:21.302Z,64.75
2022-09-14T22:36:52.137Z,64.79
2022-09-14T22:39:23.352Z,64.80
2022-09-14T22:41:54.537Z,64.89
2022-09-14T22:44:25.540Z,64.99
2022-09-14T22:46:56.972Z,65.11
2022-09-14T22:49:28.312Z,65.10
2022-09-14T22:51:59.400Z,64.95
2022-09-14T22:54:30.518Z,65.11
2022-09-14T22:57:01.513Z,65.12
2022-09-14T22:59:32.785Z,65.20
2022-09-14T23:02:03.777Z,65.25
2022-09-14T23:04:34.338Z,65.27
2022-09-14T23:07:07.414Z,65.46
2022-09-14T23:09:39.353Z,65.49
2022-09-14T23:12:10.332Z,65.48
2022-09-14T23:14:41.192Z,65.45
2022-09-14T23:17:13.136Z,65.37
2022-09-14T23:19:43.975Z,65.39
2022-09-14T23:22:14.785Z,65.39
2022-09-14T23:24:45.728Z,65.41
2022-09-14T23:27:16.901Z,65.32
2022-09-14T23:29:47.718Z,65.34
2022-09-14T23:32:18.535Z,65.26
2022-09-14T23:34:51.218Z,65.34
2022-09-14T23:37:22.100Z,65.26
2022-09-14T23:39:52.931Z,65.32
2022-09-14T23:42:23.727Z,65.25
2022-09-14T23:44:54.543Z,65.38
2022-09-14T23:47:25.551Z,65.44
2022-09-14T23:49:56.486Z,65.45
2022-09-14T23:52:27.565Z,65.49
2022-09-14T23:54:58.449Z,65.63
2022-09-14T23:57:29.305Z,65.69
